sensor_id;sensor_type;location;lat;lon;timestamp;pressure;altitude;pressure_sealevel;temperature;humidity
12913;BME280;6524;51.368;11.984;2023-09-19T04:00:42;155347.38;;;14.56;78.13
12913;BME280;6524;51.368;11.984;2023-09-19T04:05:43;155344.72;;;14.55;77.74
12913;BME280;6524;51.368;11.984;2023-09-19T04:10:43;155373.53;;;14.67;77.32
12913;BME280;6524;51.368;11.984;2023-09-19T04:15:44;155347.38;;;14.56;77.69
12913;BME280;6524;51.368;11.984;2023-09-19T04:20:50;155336.88;;;14.52;77.42
12913;BME280;6524;51.368;11.984;2023-09-19T04:25:50;155331.63;;;14.50;77.41
12913;BME280;6524;51.368;11.984;2023-09-19T04:30:51;155261.00;;;14.23;78.40
12913;BME280;6524;51.368;11.984;2023-09-19T04:35:51;155291.09;;;14.34;77.49
12913;BME280;6524;51.368;11.984;2023-09-19T04:40:56;155250.56;;;14.19;77.74
12913;BME280;6524;51.368;11.984;2023-09-19T04:45:57;155242.72;;;14.16;77.74
12913;BME280;6524;51.368;11.984;2023-09-19T04:51:00;155216.53;;;14.05;77.22
12913;BME280;6524;51.368;11.984;2023-09-19T04:56:00;155195.63;;;13.97;76.93
12913;BME280;6524;51.368;11.984;2023-09-19T05:01:01;155213.94;;;14.04;76.98
12913;BME280;6524;51.368;11.984;2023-09-19T05:06:02;155182.53;;;13.92;76.43
12913;BME280;6524;51.368;11.984;2023-09-19T05:11:04;155211.34;;;14.03;75.82
12913;BME280;6524;51.368;11.984;2023-09-19T05:16:04;155242.72;;;14.16;75.10
12913;BME280;6524;51.368;11.984;2023-09-19T05:21:05;155208.69;;;14.02;75.96
12913;BME280;6524;51.368;11.984;2023-09-19T05:26:05;155198.25;;;13.98;76.28
12913;BME280;6524;51.368;11.984;2023-09-19T05:31:06;155190.41;;;13.95;76.11
12913;BME280;6524;51.368;11.984;2023-09-19T05:36:06;155219.19;;;14.06;75.96
12913;BME280;6524;51.368;11.984;2023-09-19T05:41:10;155160.31;;;13.83;76.62
12913;BME280;6524;51.368;11.984;2023-09-19T05:46:13;155204.78;;;14.01;75.67
12913;BME280;6524;51.368;11.984;2023-09-19T05:51:16;155211.34;;;14.03;75.38
12913;BME280;6524;51.368;11.984;2023-09-19T05:56:18;155219.19;;;14.06;75.31
12913;BME280;6524;51.368;11.984;2023-09-19T06:01:19;155272.75;;;14.27;75.46
12913;BME280;6524;51.368;11.984;2023-09-19T06:06:19;155342.13;;;14.54;75.50
12913;BME280;6524;51.368;11.984;2023-09-19T06:11:20;155432.38;;;14.90;73.28
12913;BME280;6524;51.368;11.984;2023-09-19T06:16:20;155543.59;;;15.33;73.03
12913;BME280;6524;51.368;11.984;2023-09-19T06:21:24;155635.31;;;15.69;72.22
12913;BME280;6524;51.368;11.984;2023-09-19T06:26:25;155767.56;;;16.21;69.97
12913;BME280;6524;51.368;11.984;2023-09-19T06:31:27;155852.69;;;16.54;68.25
12913;BME280;6524;51.368;11.984;2023-09-19T06:36:27;155931.25;;;16.84;66.95
12913;BME280;6524;51.368;11.984;2023-09-19T06:41:29;156051.81;;;17.31;64.86
12913;BME280;6524;51.368;11.984;2023-09-19T06:46:30;156211.78;;;17.94;61.31
12913;BME280;6524;51.368;11.984;2023-09-19T06:51:33;156298.31;;;18.28;58.90
12913;BME280;6524;51.368;11.984;2023-09-19T06:56:34;156236.69;;;18.04;56.91
12913;BME280;6524;51.368;11.984;2023-09-19T07:01:35;156201.31;;;17.90;57.99
12913;BME280;6524;51.368;11.984;2023-09-19T07:06:37;156114.72;;;17.56;59.39
12913;BME280;6524;51.368;11.984;2023-09-19T07:11:38;156147.53;;;17.69;58.57
12913;BME280;6524;51.368;11.984;2023-09-19T07:16:39;156293.09;;;18.26;56.77
12913;BME280;6524;51.368;11.984;2023-09-19T07:21:40;156463.63;;;18.92;54.54
12913;BME280;6524;51.368;11.984;2023-09-19T07:26:40;156497.72;;;19.05;53.53
12913;BME280;6524;51.368;11.984;2023-09-19T07:31:41;156445.22;;;18.85;53.79
12913;BME280;6524;51.368;11.984;2023-09-19T07:36:42;156526.66;;;19.17;53.58
12913;BME280;6524;51.368;11.984;2023-09-19T07:41:42;156779.94;;;20.15;50.28
12913;BME280;6524;51.368;11.984;2023-09-19T07:46:42;156800.97;;;20.23;51.73
12913;BME280;6524;51.368;11.984;2023-09-19T07:51:44;156663.06;;;19.70;51.39
12913;BME280;6524;51.368;11.984;2023-09-19T07:56:46;156306.19;;;18.31;54.84
12913;BME280;6524;51.368;11.984;2023-09-19T08:01:47;156012.56;;;17.16;58.15
12913;BME280;6524;51.368;11.984;2023-09-19T08:06:47;155946.97;;;16.91;59.35
12913;BME280;6524;51.368;11.984;2023-09-19T08:11:48;155933.91;;;16.85;59.81
12913;BME280;6524;51.368;11.984;2023-09-19T08:16:50;155856.59;;;16.55;59.77
12913;BME280;6524;51.368;11.984;2023-09-19T08:21:51;155844.84;;;16.51;60.35
12913;BME280;6524;51.368;11.984;2023-09-19T08:26:51;155874.91;;;16.62;60.24
12913;BME280;6524;51.368;11.984;2023-09-19T08:31:52;155912.91;;;16.77;60.13
12913;BME280;6524;51.368;11.984;2023-09-19T08:36:54;156066.25;;;17.37;57.17
12913;BME280;6524;51.368;11.984;2023-09-19T08:41:58;156150.19;;;17.70;55.92
12913;BME280;6524;51.368;11.984;2023-09-19T08:47:10;156251.09;;;18.09;52.81
12913;BME280;6524;51.368;11.984;2023-09-19T08:52:28;156602.72;;;19.46;49.95
12913;BME280;6524;51.368;11.984;2023-09-19T08:57:34;156699.88;;;19.84;46.82
12913;BME280;6524;51.368;11.984;2023-09-19T09:02:38;156459.66;;;18.90;47.54
12913;BME280;6524;51.368;11.984;2023-09-19T09:07:43;156618.47;;;19.52;46.05
12913;BME280;6524;51.368;11.984;2023-09-19T09:12:44;156793.09;;;20.20;44.57
12913;BME280;6524;51.368;11.984;2023-09-19T09:17:47;156778.63;;;20.15;43.50
12913;BME280;6524;51.368;11.984;2023-09-19T09:22:53;156789.13;;;20.19;44.54
12913;BME280;6524;51.368;11.984;2023-09-19T09:28:01;156739.25;;;19.99;43.67
12913;BME280;6524;51.368;11.984;2023-09-19T09:33:09;156644.69;;;19.62;44.09
12913;BME280;6524;51.368;11.984;2023-09-19T09:38:11;156879.75;;;20.54;45.86
12913;BME280;6524;51.368;11.984;2023-09-19T09:43:29;156559.44;;;19.29;43.30
12913;BME280;6524;51.368;11.984;2023-09-19T09:48:29;156294.41;;;18.26;44.76
12913;BME280;6524;51.368;11.984;2023-09-19T09:53:33;156282.56;;;18.21;44.81
12913;BME280;6524;51.368;11.984;2023-09-19T09:59:00;156316.66;;;18.35;45.10
12913;BME280;6524;51.368;11.984;2023-09-19T10:04:07;156377.06;;;18.58;44.69
12913;BME280;6524;51.368;11.984;2023-09-19T10:09:09;156396.69;;;18.66;43.94
12913;BME280;6524;51.368;11.984;2023-09-19T10:14:24;156374.44;;;18.57;43.83
12913;BME280;6524;51.368;11.984;2023-09-19T10:19:54;156442.63;;;18.84;42.52
12913;BME280;6524;51.368;11.984;2023-09-19T10:24:57;156499.03;;;19.06;42.24
12913;BME280;6524;51.368;11.984;2023-09-19T10:29:59;156606.63;;;19.48;41.21
12913;BME280;6524;51.368;11.984;2023-09-19T10:35:02;156728.78;;;19.95;39.58
12913;BME280;6524;51.368;11.984;2023-09-19T10:40:05;156878.44;;;20.53;39.64
12913;BME280;6524;51.368;11.984;2023-09-19T10:45:09;156814.06;;;20.28;39.95
12913;BME280;6524;51.368;11.984;2023-09-19T10:50:20;156962.50;;;20.86;39.59
12913;BME280;6524;51.368;11.984;2023-09-19T10:55:22;156842.97;;;20.40;41.58
12913;BME280;6524;51.368;11.984;2023-09-19T11:00:24;156711.72;;;19.89;40.63
12913;BME280;6524;51.368;11.984;2023-09-19T11:05:27;156744.53;;;20.01;40.84
12913;BME280;6524;51.368;11.984;2023-09-19T11:10:50;156957.25;;;20.84;39.94
12913;BME280;6524;51.368;11.984;2023-09-19T11:26:44;157154.31;;;21.61;36.99
12913;BME280;6524;51.368;11.984;2023-09-19T11:31:47;157243.75;;;21.96;36.19
12913;BME280;6524;51.368;11.984;2023-09-19T11:36:49;157304.19;;;22.19;35.95
12913;BME280;6524;51.368;11.984;2023-09-19T11:41:50;157225.31;;;21.88;35.56
12913;BME280;6524;51.368;11.984;2023-09-19T11:46:57;157167.47;;;21.66;37.31
12913;BME280;6524;51.368;11.984;2023-09-19T11:52:00;157135.91;;;21.54;38.54
12913;BME280;6524;51.368;11.984;2023-09-19T11:57:03;156933.59;;;20.75;38.94
12913;BME280;6524;51.368;11.984;2023-09-19T12:02:05;156810.16;;;20.27;38.87
12913;BME280;6524;51.368;11.984;2023-09-19T12:07:10;156854.75;;;20.44;39.78
12913;BME280;6524;51.368;11.984;2023-09-19T12:12:25;156986.16;;;20.95;38.77
12913;BME280;6524;51.368;11.984;2023-09-19T12:17:37;157038.72;;;21.16;36.48
12913;BME280;6524;51.368;11.984;2023-09-19T12:22:43;156870.56;;;20.50;37.08
12913;BME280;6524;51.368;11.984;2023-09-19T12:27:48;156768.16;;;20.11;37.61
12913;BME280;6524;51.368;11.984;2023-09-19T12:32:57;156923.09;;;20.71;38.18
12913;BME280;6524;51.368;11.984;2023-09-19T12:37:59;157067.63;;;21.27;37.00
12913;BME280;6524;51.368;11.984;2023-09-19T12:43:00;156911.25;;;20.66;37.02
12913;BME280;6524;51.368;11.984;2023-09-19T12:48:24;157015.03;;;21.07;37.28
12913;BME280;6524;51.368;11.984;2023-09-19T12:53:46;157078.13;;;21.31;37.50
12913;BME280;6524;51.368;11.984;2023-09-19T12:58:58;157191.09;;;21.75;37.01
12913;BME280;6524;51.368;11.984;2023-09-19T13:04:13;157032.09;;;21.13;37.58
12913;BME280;6524;51.368;11.984;2023-09-19T13:09:20;157049.22;;;21.20;36.82
12913;BME280;6524;51.368;11.984;2023-09-19T13:14:23;157214.81;;;21.84;36.57
12913;BME280;6524;51.368;11.984;2023-09-19T13:19:47;157248.97;;;21.98;36.86
12913;BME280;6524;51.368;11.984;2023-09-19T13:24:58;157122.81;;;21.49;37.23
12913;BME280;6524;51.368;11.984;2023-09-19T13:29:59;156984.78;;;20.95;37.57
12913;BME280;6524;51.368;11.984;2023-09-19T13:34:59;156865.34;;;20.48;38.43
12913;BME280;6524;51.368;11.984;2023-09-19T13:40:00;156959.84;;;20.85;38.60
12913;BME280;6524;51.368;11.984;2023-09-19T13:45:00;156895.50;;;20.60;38.99
12913;BME280;6524;51.368;11.984;2023-09-19T13:50:02;157007.13;;;21.04;38.81
12913;BME280;6524;51.368;11.984;2023-09-19T13:55:04;157156.97;;;21.62;38.47
12913;BME280;6524;51.368;11.984;2023-09-19T14:00:07;157076.81;;;21.31;39.05
12913;BME280;6524;51.368;11.984;2023-09-19T14:05:10;157064.97;;;21.26;37.93
12913;BME280;6524;51.368;11.984;2023-09-19T14:10:12;157075.50;;;21.30;37.75
12913;BME280;6524;51.368;11.984;2023-09-19T14:15:13;157064.97;;;21.26;36.18
12913;BME280;6524;51.368;11.984;2023-09-19T14:20:14;157020.28;;;21.09;35.95
12913;BME280;6524;51.368;11.984;2023-09-19T14:25:26;157051.88;;;21.21;36.75
12913;BME280;6524;51.368;11.984;2023-09-19T14:30:27;157099.16;;;21.39;37.13
12913;BME280;6524;51.368;11.984;2023-09-19T14:35:28;157062.38;;;21.25;38.02
12913;BME280;6524;51.368;11.984;2023-09-19T14:40:28;157040.03;;;21.16;36.94
12913;BME280;6524;51.368;11.984;2023-09-19T14:45:28;156875.84;;;20.52;37.80
12913;BME280;6524;51.368;11.984;2023-09-19T14:50:30;156734.00;;;19.97;38.86
12913;BME280;6524;51.368;11.984;2023-09-19T14:55:30;156655.22;;;19.67;39.03
12913;BME280;6524;51.368;11.984;2023-09-19T15:00:34;156647.34;;;19.64;40.22
12913;BME280;6524;51.368;11.984;2023-09-19T15:05:35;156542.34;;;19.23;40.45
12913;BME280;6524;51.368;11.984;2023-09-19T15:10:35;156485.88;;;19.01;40.79
12913;BME280;6524;51.368;11.984;2023-09-19T15:15:36;156450.47;;;18.87;40.46
12913;BME280;6524;51.368;11.984;2023-09-19T15:20:42;156333.78;;;18.41;41.25
12913;BME280;6524;51.368;11.984;2023-09-19T15:25:48;156345.56;;;18.46;41.77
12913;BME280;6524;51.368;11.984;2023-09-19T15:41:03;156281.28;;;18.21;42.12
12913;BME280;6524;51.368;11.984;2023-09-19T15:46:04;156290.44;;;18.24;42.73
12913;BME280;6524;51.368;11.984;2023-09-19T15:51:04;156240.63;;;18.05;43.06
12913;BME280;6524;51.368;11.984;2023-09-19T15:56:06;156224.91;;;17.99;42.77
12913;BME280;6524;51.368;11.984;2023-09-19T16:01:08;156169.84;;;17.77;42.15
12913;BME280;6524;51.368;11.984;2023-09-19T16:06:13;156173.78;;;17.79;43.12
12913;BME280;6524;51.368;11.984;2023-09-19T16:11:14;156097.72;;;17.49;42.56
12913;BME280;6524;51.368;11.984;2023-09-19T16:16:19;156127.84;;;17.61;42.60
12913;BME280;6524;51.368;11.984;2023-09-19T16:21:27;156193.44;;;17.87;42.86
12913;BME280;6524;51.368;11.984;2023-09-19T16:26:28;156203.91;;;17.91;43.03
12913;BME280;6524;51.368;11.984;2023-09-19T16:31:30;156075.41;;;17.41;43.54
12913;BME280;6524;51.368;11.984;2023-09-19T16:36:32;156054.47;;;17.32;43.03
12913;BME280;6524;51.368;11.984;2023-09-19T16:41:34;156116.03;;;17.56;43.78
12913;BME280;6524;51.368;11.984;2023-09-19T16:46:35;156093.78;;;17.48;43.33
12913;BME280;6524;51.368;11.984;2023-09-19T16:51:36;155941.75;;;16.89;44.13
12913;BME280;6524;51.368;11.984;2023-09-19T16:56:38;155973.25;;;17.01;44.16
12913;BME280;6524;51.368;11.984;2023-09-19T17:01:39;155965.38;;;16.98;44.04
12913;BME280;6524;51.368;11.984;2023-09-19T17:06:39;155884.13;;;16.66;44.55
12913;BME280;6524;51.368;11.984;2023-09-19T17:11:40;155800.28;;;16.33;45.68
12913;BME280;6524;51.368;11.984;2023-09-19T17:16:41;155742.63;;;16.11;45.96
12913;BME280;6524;51.368;11.984;2023-09-19T17:21:42;155690.25;;;15.90;46.21
12913;BME280;6524;51.368;11.984;2023-09-19T17:26:43;155669.31;;;15.82;47.04
12913;BME280;6524;51.368;11.984;2023-09-19T17:31:43;155644.47;;;15.73;47.47
12913;BME280;6524;51.368;11.984;2023-09-19T17:36:44;155579.03;;;15.47;47.89
12913;BME280;6524;51.368;11.984;2023-09-19T17:41:46;155585.53;;;15.49;47.66
12913;BME280;6524;51.368;11.984;2023-09-19T17:46:47;155657.53;;;15.78;46.96
12913;BME280;6524;51.368;11.984;2023-09-19T17:51:48;155687.63;;;15.89;47.22
12913;BME280;6524;51.368;11.984;2023-09-19T17:56:49;155674.56;;;15.84;47.83
12913;BME280;6524;51.368;11.984;2023-09-19T18:01:49;155603.88;;;15.57;48.73
12913;BME280;6524;51.368;11.984;2023-09-19T18:06:50;155606.47;;;15.58;48.44
12913;BME280;6524;51.368;11.984;2023-09-19T18:11:51;155552.81;;;15.37;49.52
12913;BME280;6524;51.368;11.984;2023-09-19T18:16:51;155588.19;;;15.51;48.99
12913;BME280;6524;51.368;11.984;2023-09-19T18:21:56;155611.75;;;15.60;49.44
12913;BME280;6524;51.368;11.984;2023-09-19T18:27:00;155602.59;;;15.56;49.92
12913;BME280;6524;51.368;11.984;2023-09-19T18:32:01;155606.47;;;15.58;50.41
12913;BME280;6524;51.368;11.984;2023-09-19T18:37:02;155535.75;;;15.30;50.83
12913;BME280;6524;51.368;11.984;2023-09-19T18:42:04;155588.19;;;15.51;50.76
12913;BME280;6524;51.368;11.984;2023-09-19T18:47:04;155543.59;;;15.33;50.97
12913;BME280;6524;51.368;11.984;2023-09-19T18:52:05;155457.22;;;14.99;51.08
12913;BME280;6524;51.368;11.984;2023-09-19T18:57:08;155452.03;;;14.97;50.96
12913;BME280;6524;51.368;11.984;2023-09-19T19:02:08;155503.03;;;15.17;51.32
12913;BME280;6524;51.368;11.984;2023-09-19T19:07:10;155482.13;;;15.09;50.91
12913;BME280;6524;51.368;11.984;2023-09-19T19:12:16;155504.34;;;15.18;50.79
12913;BME280;6524;51.368;11.984;2023-09-19T19:17:16;155530.56;;;15.28;51.73
12913;BME280;6524;51.368;11.984;2023-09-19T19:22:17;155554.16;;;15.37;51.57
12913;BME280;6524;51.368;11.984;2023-09-19T19:27:21;155543.59;;;15.33;50.77
12913;BME280;6524;51.368;11.984;2023-09-19T19:32:21;155520.03;;;15.24;50.58
12913;BME280;6524;51.368;11.984;2023-09-19T19:37:26;155486.03;;;15.11;50.84
12913;BME280;6524;51.368;11.984;2023-09-19T19:42:26;155491.28;;;15.13;51.50
12913;BME280;6524;51.368;11.984;2023-09-19T19:47:32;155436.34;;;14.91;53.07
12913;BME280;6524;51.368;11.984;2023-09-19T19:52:32;155459.88;;;15.00;51.94
12913;BME280;6524;51.368;11.984;2023-09-19T19:57:34;155470.34;;;15.05;52.48
12913;BME280;6524;51.368;11.984;2023-09-19T20:02:48;155418.03;;;14.84;53.28
12913;BME280;6524;51.368;11.984;2023-09-19T20:07:51;155458.59;;;15.00;53.24
12913;BME280;6524;51.368;11.984;2023-09-19T20:13:17;155360.44;;;14.62;55.15
12913;BME280;6524;51.368;11.984;2023-09-19T20:18:17;155380.09;;;14.69;55.81
12913;BME280;6524;51.368;11.984;2023-09-19T20:23:19;155318.53;;;14.45;56.41
12913;BME280;6524;51.368;11.984;2023-09-19T20:28:20;155254.47;;;14.20;57.64
12913;BME280;6524;51.368;11.984;2023-09-19T20:33:24;155240.06;;;14.15;57.00
12913;BME280;6524;51.368;11.984;2023-09-19T20:38:24;155292.41;;;14.35;56.76
12913;BME280;6524;51.368;11.984;2023-09-19T20:43:25;155308.09;;;14.41;57.38
12913;BME280;6524;51.368;11.984;2023-09-19T20:48:25;155258.41;;;14.22;57.23
12913;BME280;6524;51.368;11.984;2023-09-19T20:53:26;155310.69;;;14.42;56.93
12913;BME280;6524;51.368;11.984;2023-09-19T20:58:27;155326.38;;;14.48;56.63
12913;BME280;6524;51.368;11.984;2023-09-19T21:03:27;155390.53;;;14.73;55.85
12913;BME280;6524;51.368;11.984;2023-09-19T21:08:28;155373.53;;;14.67;56.44
12913;BME280;6524;51.368;11.984;2023-09-19T21:13:28;155386.63;;;14.72;56.25
12913;BME280;6524;51.368;11.984;2023-09-19T21:18:29;155420.63;;;14.85;55.77
12913;BME280;6524;51.368;11.984;2023-09-19T21:23:33;155438.94;;;14.92;55.61
12913;BME280;6524;51.368;11.984;2023-09-19T21:28:35;155470.34;;;15.05;55.00
12913;BME280;6524;51.368;11.984;2023-09-19T21:33:40;155472.94;;;15.06;55.22
12913;BME280;6524;51.368;11.984;2023-09-19T21:38:42;155512.19;;;15.21;55.46
12913;BME280;6524;51.368;11.984;2023-09-19T21:43:44;155459.88;;;15.00;56.41
12913;BME280;6524;51.368;11.984;2023-09-19T21:48:44;155459.88;;;15.00;55.92
12913;BME280;6524;51.368;11.984;2023-09-19T21:53:48;155419.34;;;14.85;56.66
12913;BME280;6524;51.368;11.984;2023-09-19T21:58:49;155420.63;;;14.85;56.25
12913;BME280;6524;51.368;11.984;2023-09-19T22:03:49;155365.69;;;14.64;56.61
12913;BME280;6524;51.368;11.984;2023-09-19T22:08:50;155349.97;;;14.58;56.35
12913;BME280;6524;51.368;11.984;2023-09-19T22:13:50;155346.09;;;14.56;56.44
12913;BME280;6524;51.368;11.984;2023-09-19T22:18:51;155263.59;;;14.24;57.63
12913;BME280;6524;51.368;11.984;2023-09-19T22:23:52;155271.47;;;14.27;57.55
12913;BME280;6524;51.368;11.984;2023-09-19T22:28:55;155314.63;;;14.44;57.35
12913;BME280;6524;51.368;11.984;2023-09-19T22:33:57;155315.94;;;14.44;57.21
12913;BME280;6524;51.368;11.984;2023-09-19T22:38:57;155318.53;;;14.45;57.46
12913;BME280;6524;51.368;11.984;2023-09-19T22:44:01;155342.13;;;14.54;57.20
12913;BME280;6524;51.368;11.984;2023-09-19T22:49:01;155356.53;;;14.60;57.26
12913;BME280;6524;51.368;11.984;2023-09-19T22:54:03;155344.72;;;14.55;57.30
12913;BME280;6524;51.368;11.984;2023-09-19T22:59:08;155336.88;;;14.52;58.02
12913;BME280;6524;51.368;11.984;2023-09-19T23:04:09;155237.47;;;14.14;58.84
12913;BME280;6524;51.368;11.984;2023-09-19T23:09:12;155190.41;;;13.95;60.28
12913;BME280;6524;51.368;11.984;2023-09-19T23:14:16;155207.38;;;14.02;60.18
12913;BME280;6524;51.368;11.984;2023-09-19T23:19:17;155250.56;;;14.19;59.81
12913;BME280;6524;51.368;11.984;2023-09-19T23:24:40;155138.13;;;13.75;61.74
12913;BME280;6524;51.368;11.984;2023-09-19T23:35:07;155234.88;;;14.13;60.71
12913;BME280;6524;51.368;11.984;2023-09-19T23:40:09;155223.06;;;14.08;60.77
12913;BME280;6524;51.368;11.984;2023-09-19T23:45:10;155166.84;;;13.86;61.68
12913;BME280;6524;51.368;11.984;2023-09-19T23:50:11;155208.69;;;14.02;61.65
12913;BME280;6524;51.368;11.984;2023-09-19T23:55:12;155132.88;;;13.73;62.93
